Dell, Montana
Current Conditions -  °F | °C
As of 2:53 PM on Friday 24 Oct 2014 (Local Time) from KDLN Reporting Station
Overcast Overcast  
Wind Chill: 52°   Ceiling: 8000
Heat Index: 52°   Visibility: 10mi
Dew Point: 43°   Wind: 5mph
Humidity: 71%   Direction: 30°NNE
Pressure: 30.1"   Gusts: NA
Location:  44.73°N, 112.7°W
Report Text: KDLN 242053Z AUTO 03004KT 10SM OVC080 11/06 A3010 RMK AO2 RAB14E26 SLP170 P0000 60000 T01110061 58005
Loading
Personal Weather Stations






























Interactive Weather Map
Tropical Storm Tracking
New forecast layout! Learn more

10-Day Weather Forecast

Advertisements
Track Severe Weather on mobile